Terminal Aerodrome Forecast
Issued by NWS Boston, MA

Home | Current Version | Previous Version | Text Only | Print | Product List | Glossary Off
Versions: 1 2 3 4 5 6 7 8 9 10 11 12 13 14 15 16 17 18 19 20 21 22 23 24 25 26 27 28 29 30 31 32 33 34 35 36 37
000 FTUS41 KBOX 212320 TAFPVD TAF KPVD 212320Z 2200/2224 31008KT P6SM SKC FM221100 25005KT P6SM FEW250 FM221500 24009KT P6SM FEW140 FM222000 23013G27KT P6SM BKN150=

USA.gov is the U.S. government's official web portal to all federal, state and local government web resources and services.